Aérodrome :
LOGIN :

S'inscrire | Disclaimer

   EN    FR    IT 

 










Légende :    VFR   VFR Marginal   IFR   IFR Intensif   IFR Très Intensif
Visi : 
Plafond : 
>= 8 km
>= 3000ft
5 à 8 km
1000 à 3000 ft
1500m à 5 km
500 à 1000 ft
800 à 1500m
200 à 500 ft
< 800m
< 200 ft
Symboles :   Orages  Brouillard  Fortes neiges  Fortes précipitations  Vent > 20 kt
SIGMETs :   Divers  Orages  Givrage  Turbulence  Onde Orograph.  Cendres Volcan.







- Altitude de l'aérodrome : 56 ft
- Code IATA : BZR
- Voir les cartes d'approche


LFMU - Beziers / Vias

DERNIER METAR :
  • 212000Z AUTO 34005KT CAVOK 13/09 Q1011 NOSIG

METARs EXPIRÉS :
  • 211930Z AUTO 36004KT CAVOK 14/09 Q1012 NOSIG
  • 211900Z AUTO 35004KT CAVOK 15/10 Q1012 NOSIG
  • 211830Z AUTO 01004KT 9999 NSC 16/10 Q1012 NOSIG
  • 211800Z AUTO 02004KT CAVOK 17/09 Q1012 NOSIG
  • 211730Z AUTO 06004KT 040V100 CAVOK 18/09 Q1012 NOSIG

TAF TAF LFMU
Valide du 21 à 15h jusqu'au 22 à 15h UTC


211400Z 2115/2215 03010KT CAVOK
BECMG 2118/2120 VRB03KT
PROB30
TEMPO 2205/2208 SHRA FEW040TCU
BECMG 2211/2213 15010KT
ATIS : +33 4 67 90 88 88
Pas de NOTAMs connus pour ce terrain.
1 SIGMET publié pour la FIR Marseille (LFMM) :
 
Turbulence forte
LFMM SIGMET 8 VALID 212000/220000 LFPW
LFMM MARSEILLE FIR/UIR SEV TURB FCST WI N4430 E00700 - N4400 E00700 - N4315 E00945 - N4115 E00945 - N4115 E00800 - N4245 E00800 - N4245 E00545 - N4430 E00700 SFC/FL080 STNR NC=



MET'MAP, la Météo Aéronautique d'un coup d'oeil ! - Copyright ORBIFLY Décembre 2007 - Disclaimer

ORBIFLY MET'MAP TEAM :

Programmation & Développement : Alexandra Zaïnal
Conception & Développement : Baudouin d'Aumeries
Co-Programmation & Développement : Marc-Olivier Méhu
Soutien technique & logistique : Manuel Goepfert

Contact : metmap@orbifly.com




SOURCES & CREDITS :

   NOAA